createdAt,value
2019-05-02T00:02:28.577Z,30.10
2019-05-02T00:04:55.807Z,30.23
2019-05-02T00:07:25.376Z,30.60
2019-05-02T00:09:54.576Z,29.17
2019-05-02T00:12:23.971Z,30.17
2019-05-02T00:14:56.590Z,28.30
2019-05-02T00:17:25.558Z,29.27
2019-05-02T00:19:54.733Z,28.73
2019-05-02T00:22:23.721Z,28.33
2019-05-02T00:24:52.526Z,29.00
2019-05-02T00:27:21.350Z,29.17
2019-05-02T00:29:53.902Z,30.27
2019-05-02T00:32:22.455Z,29.27
2019-05-02T00:34:51.565Z,31.53
2019-05-02T00:37:24.597Z,31.27
2019-05-02T00:39:50.956Z,31.63
2019-05-02T00:42:22.409Z,31.50
2019-05-02T00:44:50.184Z,32.20
2019-05-02T00:47:26.463Z,31.33
2019-05-02T00:49:55.244Z,30.73
2019-05-02T00:52:23.979Z,31.30
2019-05-02T00:54:54.990Z,29.57
2019-05-02T00:57:23.213Z,32.40
2019-05-02T00:59:52.030Z,31.97
2019-05-02T01:02:30.883Z,30.63
2019-05-02T01:05:03.222Z,31.23
2019-05-02T01:07:30.121Z,33.70
2019-05-02T01:09:58.864Z,32.83
2019-05-02T01:12:27.688Z,37.67
2019-05-02T01:14:56.748Z,35.70
2019-05-02T01:17:26.094Z,37.47
2019-05-02T01:19:56.011Z,39.23
2019-05-02T01:22:24.801Z,37.93
2019-05-02T01:24:53.734Z,38.07
2019-05-02T01:27:41.268Z,35.27
2019-05-02T01:30:21.294Z,34.40
2019-05-02T01:33:15.004Z,34.30
2019-05-02T01:35:55.122Z,34.70
2019-05-02T01:38:31.884Z,36.37
2019-05-02T01:40:58.569Z,42.53
2019-05-02T01:43:29.293Z,44.73
2019-05-02T01:45:58.192Z,39.70
2019-05-02T01:48:27.721Z,41.67
2019-05-02T01:50:56.977Z,37.43
2019-05-02T01:53:29.142Z,38.63
2019-05-02T01:55:57.286Z,39.33
2019-05-02T01:58:26.957Z,38.23
2019-05-02T02:00:55.765Z,39.93
2019-05-02T02:03:24.711Z,42.03
2019-05-02T02:05:53.547Z,39.90
2019-05-02T02:08:22.596Z,44.60
2019-05-02T02:10:56.071Z,45.23
2019-05-02T02:13:22.091Z,44.67
2019-05-02T02:15:50.917Z,43.57
2019-05-02T02:18:22.187Z,44.00
2019-05-02T02:21:01.778Z,46.60
2019-05-02T02:23:38.686Z,48.53
2019-05-02T02:26:12.031Z,45.87
2019-05-02T02:28:41.183Z,45.50
2019-05-02T02:31:10.260Z,46.37
2019-05-02T02:33:40.860Z,44.93
2019-05-02T02:36:10.155Z,44.63
2019-05-02T02:38:39.422Z,44.87
2019-05-02T02:41:13.104Z,45.70
2019-05-02T02:43:39.343Z,44.97
2019-05-02T02:46:16.883Z,43.63
2019-05-02T02:48:46.014Z,45.50
2019-05-02T02:51:24.099Z,44.17
2019-05-02T02:53:45.910Z,43.73
2019-05-02T02:56:15.079Z,45.27
2019-05-02T02:58:46.026Z,43.73
2019-05-02T03:01:27.612Z,44.43
2019-05-02T03:03:46.087Z,43.27
2019-05-02T03:06:15.317Z,42.53
2019-05-02T03:08:48.801Z,44.83
2019-05-02T03:11:23.257Z,41.83
2019-05-02T03:14:05.575Z,42.80
2019-05-02T03:16:27.050Z,43.93
2019-05-02T03:18:56.494Z,42.23
2019-05-02T03:21:25.729Z,41.70
2019-05-02T03:24:03.410Z,41.53
2019-05-02T03:26:26.487Z,42.17
2019-05-02T03:28:58.464Z,42.20
2019-05-02T03:31:30.282Z,42.67
2019-05-02T03:34:00.865Z,42.47
2019-05-02T03:36:35.799Z,41.53
2019-05-02T03:39:00.144Z,41.90
2019-05-02T03:41:28.973Z,40.93
2019-05-02T03:44:10.853Z,41.63
2019-05-02T03:46:29.245Z,41.07
2019-05-02T03:49:05.431Z,43.27
2019-05-02T03:51:28.981Z,40.33
2019-05-02T03:54:06.293Z,41.80
2019-05-02T03:56:28.420Z,42.07
2019-05-02T03:58:58.202Z,42.13
2019-05-02T04:01:27.495Z,42.80
2019-05-02T04:03:56.324Z,42.20
2019-05-02T04:06:25.329Z,42.17
2019-05-02T04:09:00.129Z,43.13
2019-05-02T04:11:25.885Z,45.60
2019-05-02T04:13:57.953Z,43.60
2019-05-02T04:16:28.627Z,44.40
2019-05-02T04:18:58.737Z,43.47
2019-05-02T04:21:27.610Z,46.27
2019-05-02T04:24:06.709Z,46.40
2019-05-02T04:26:28.175Z,46.67
2019-05-02T04:28:57.683Z,46.03
2019-05-02T04:31:31.400Z,48.17
2019-05-02T04:33:57.256Z,49.83
2019-05-02T04:36:26.029Z,44.93
2019-05-02T04:38:54.789Z,44.67
2019-05-02T04:41:28.432Z,45.67
2019-05-02T04:43:57.693Z,45.33
2019-05-02T04:46:30.110Z,45.10
2019-05-02T04:48:55.090Z,45.70
2019-05-02T04:51:27.449Z,44.73
2019-05-02T04:53:54.654Z,44.57
2019-05-02T04:56:23.421Z,43.07
2019-05-02T04:58:52.248Z,43.83
2019-05-02T05:01:21.587Z,45.57
2019-05-02T05:03:58.189Z,44.43
2019-05-02T05:06:20.908Z,42.90
2019-05-02T05:08:49.654Z,42.10
2019-05-02T05:11:24.672Z,44.30
2019-05-02T05:13:52.532Z,42.73
2019-05-02T05:16:20.091Z,43.17
2019-05-02T05:18:53.030Z,49.10
2019-05-02T05:21:19.459Z,43.07
2019-05-02T05:24:07.778Z,43.73
2019-05-02T05:26:42.756Z,43.27
2019-05-02T05:29:08.796Z,41.90
2019-05-02T05:31:38.287Z,41.33
2019-05-02T05:34:07.784Z,42.00
2019-05-02T05:36:37.636Z,41.43
2019-05-02T05:39:08.625Z,39.93
2019-05-02T05:41:37.929Z,41.80
2019-05-02T05:44:07.747Z,39.67
2019-05-02T05:46:38.758Z,38.87
2019-05-02T05:49:10.463Z,38.97
2019-05-02T05:51:37.645Z,52.60
2019-05-02T05:54:07.780Z,39.70
2019-05-02T05:56:42.980Z,37.30
2019-05-02T05:59:07.977Z,37.07
2019-05-02T06:01:38.402Z,34.57
2019-05-02T06:04:08.000Z,35.00
2019-05-02T06:06:37.749Z,36.07
2019-05-02T06:09:08.965Z,34.97
2019-05-02T06:11:37.840Z,34.63
2019-05-02T06:14:06.749Z,35.70
2019-05-02T06:16:35.564Z,37.23
2019-05-02T06:19:04.618Z,37.93
2019-05-02T06:21:33.474Z,37.57
2019-05-02T06:24:02.302Z,35.00
2019-05-02T06:26:31.056Z,34.60
2019-05-02T06:28:59.815Z,33.83
2019-05-02T06:31:28.550Z,32.47
2019-05-02T06:33:57.305Z,30.50
2019-05-02T06:36:26.423Z,30.73
2019-05-02T06:38:56.754Z,30.53
2019-05-02T06:41:25.724Z,32.57
2019-05-02T06:43:54.505Z,31.47
2019-05-02T06:46:27.598Z,32.27
2019-05-02T06:48:53.796Z,31.57
2019-05-02T06:51:32.553Z,30.23
2019-05-02T06:54:18.042Z,29.83
2019-05-02T06:56:53.437Z,31.73
2019-05-02T06:59:26.678Z,30.73
2019-05-02T07:01:58.883Z,29.23
2019-05-02T07:04:38.951Z,29.87
2019-05-02T07:07:13.334Z,30.07
2019-05-02T07:09:48.434Z,28.50
2019-05-02T07:12:20.756Z,29.50
2019-05-02T07:14:55.985Z,29.07
2019-05-02T07:17:44.359Z,29.77
2019-05-02T07:20:35.189Z,29.47
2019-05-02T07:23:10.707Z,28.07
2019-05-02T07:25:46.177Z,29.23
2019-05-02T07:28:24.870Z,28.30
2019-05-02T07:31:06.558Z,29.87
2019-05-02T07:33:39.206Z,27.87
2019-05-02T07:36:15.343Z,29.00
2019-05-02T07:38:48.771Z,28.60
2019-05-02T07:41:17.487Z,28.73
2019-05-02T07:43:46.233Z,27.43
2019-05-02T07:46:16.152Z,28.83
2019-05-02T07:48:48.983Z,39.83
2019-05-02T07:51:17.329Z,30.50
2019-05-02T07:53:48.579Z,29.70
2019-05-02T07:56:18.714Z,29.93
2019-05-02T07:58:48.173Z,31.13
2019-05-02T08:01:17.003Z,29.37
2019-05-02T08:03:45.735Z,31.10
2019-05-02T08:06:14.483Z,28.67
2019-05-02T08:08:43.287Z,29.80
2019-05-02T08:11:12.229Z,30.77
2019-05-02T08:13:41.106Z,31.13
2019-05-02T08:16:10.007Z,30.13
2019-05-02T08:18:38.870Z,28.53
2019-05-02T08:21:07.948Z,28.40
2019-05-02T08:23:36.674Z,28.17
2019-05-02T08:26:05.714Z,29.67
2019-05-02T08:29:02.536Z,29.93
2019-05-02T08:31:31.356Z,28.77
2019-05-02T08:34:00.220Z,31.03
2019-05-02T08:36:28.977Z,31.13
2019-05-02T08:38:57.755Z,31.67
2019-05-02T08:41:26.506Z,29.97
2019-05-02T08:43:55.351Z,32.73
2019-05-02T08:46:24.108Z,30.87
2019-05-02T08:48:52.854Z,32.27
2019-05-02T08:51:21.587Z,32.50
2019-05-02T08:53:52.004Z,29.57
2019-05-02T08:56:21.296Z,29.77
2019-05-02T08:58:51.198Z,29.20
2019-05-02T09:01:20.075Z,28.37
2019-05-02T09:03:55.023Z,28.40
2019-05-02T09:06:22.648Z,28.10
2019-05-02T09:08:51.376Z,28.40
2019-05-02T09:11:20.276Z,28.77
2019-05-02T09:13:49.210Z,29.10
2019-05-02T09:16:23.732Z,28.67
2019-05-02T09:18:53.360Z,27.53
2019-05-02T09:21:19.014Z,28.40
2019-05-02T09:23:47.761Z,27.53
2019-05-02T09:26:16.649Z,27.60
2019-05-02T09:28:45.479Z,26.93
2019-05-02T09:31:16.109Z,27.67
2019-05-02T09:33:46.830Z,27.50
2019-05-02T09:36:15.387Z,28.43
2019-05-02T09:38:44.177Z,26.63
2019-05-02T09:41:18.849Z,29.43
2019-05-02T09:43:43.450Z,27.73
2019-05-02T09:46:16.515Z,27.03
2019-05-02T09:48:43.829Z,27.17
2019-05-02T09:51:17.314Z,27.20
2019-05-02T09:53:43.331Z,26.50
2019-05-02T09:56:12.813Z,24.57
2019-05-02T09:58:42.148Z,24.60
2019-05-02T10:01:34.269Z,26.30
2019-05-02T10:04:03.091Z,25.43
2019-05-02T10:06:33.954Z,25.67
2019-05-02T10:09:02.895Z,24.70
2019-05-02T10:11:32.331Z,26.10
2019-05-02T10:14:02.448Z,29.43
2019-05-02T10:16:31.918Z,28.00
2019-05-02T10:19:09.628Z,34.97
2019-05-02T10:21:31.834Z,27.77
2019-05-02T10:24:01.687Z,25.40
2019-05-02T10:26:32.945Z,29.00
2019-05-02T10:29:02.029Z,26.10
2019-05-02T10:31:33.484Z,26.83
2019-05-02T10:34:02.383Z,25.80
2019-05-02T10:36:32.530Z,26.53
2019-05-02T10:39:01.790Z,26.90
2019-05-02T10:41:38.821Z,27.90
2019-05-02T10:44:02.188Z,25.57
2019-05-02T10:46:37.851Z,27.17
2019-05-02T10:49:18.719Z,28.03
2019-05-02T10:51:51.239Z,27.33
2019-05-02T10:54:20.586Z,28.20
2019-05-02T10:56:48.652Z,29.13
2019-05-02T10:59:17.371Z,28.03
2019-05-02T11:02:05.381Z,29.10
2019-05-02T11:04:36.466Z,28.77
2019-05-02T11:07:05.498Z,28.27
2019-05-02T11:09:34.235Z,27.17
2019-05-02T11:12:04.844Z,29.47
2019-05-02T11:14:39.881Z,27.17
2019-05-02T11:17:17.657Z,28.33
2019-05-02T11:19:52.336Z,26.87
2019-05-02T11:22:22.771Z,26.47
2019-05-02T11:24:52.338Z,26.43
2019-05-02T11:27:22.088Z,26.33
2019-05-02T11:29:52.585Z,26.00
2019-05-02T11:32:22.115Z,27.83
2019-05-02T11:34:52.417Z,26.30
2019-05-02T11:37:22.645Z,28.70
2019-05-02T11:39:58.506Z,26.77
2019-05-02T11:42:27.121Z,27.93
2019-05-02T11:44:53.209Z,28.20
2019-05-02T11:47:26.494Z,28.20
2019-05-02T11:49:55.916Z,27.80
2019-05-02T11:52:27.482Z,28.63
2019-05-02T11:54:53.891Z,28.30
2019-05-02T11:57:28.520Z,27.57
2019-05-02T11:59:53.663Z,27.90
2019-05-02T12:02:38.223Z,30.40
2019-05-02T12:05:08.805Z,41.70
2019-05-02T12:07:37.604Z,37.80
2019-05-02T12:10:06.707Z,30.77
2019-05-02T12:12:36.408Z,27.43
2019-05-02T12:15:06.028Z,42.47
2019-05-02T12:17:34.804Z,34.10
2019-05-02T12:20:03.852Z,34.40
2019-05-02T12:22:32.791Z,32.57
2019-05-02T12:25:02.974Z,29.87
2019-05-02T12:27:31.950Z,35.90
2019-05-02T12:30:03.122Z,26.93
2019-05-02T12:32:33.448Z,28.90
2019-05-02T12:35:02.499Z,33.80
2019-05-02T12:37:32.696Z,27.73
2019-05-02T12:40:02.664Z,29.50
2019-05-02T12:42:33.067Z,33.87
2019-05-02T12:45:03.027Z,27.83
2019-05-02T12:47:32.030Z,26.47
2019-05-02T12:50:02.977Z,30.63
2019-05-02T12:52:32.094Z,40.30
2019-05-02T12:55:02.268Z,48.07
2019-05-02T12:57:32.141Z,29.67
2019-05-02T13:00:02.163Z,28.33
2019-05-02T13:02:41.713Z,28.50
2019-05-02T13:05:10.591Z,26.67
2019-05-02T13:07:42.797Z,28.83
2019-05-02T13:10:12.914Z,29.87
2019-05-02T13:12:42.585Z,28.73
2019-05-02T13:15:12.823Z,27.43
2019-05-02T13:17:48.441Z,28.27
2019-05-02T13:20:15.433Z,29.03
2019-05-02T13:23:03.309Z,29.27
2019-05-02T13:25:36.945Z,30.80
2019-05-02T13:28:03.515Z,28.13
2019-05-02T13:30:46.486Z,28.93
2019-05-02T13:33:20.029Z,28.30
2019-05-02T13:35:51.986Z,27.70
2019-05-02T13:38:22.478Z,29.50
2019-05-02T13:40:51.856Z,29.30
2019-05-02T13:43:22.183Z,29.07
2019-05-02T13:46:12.471Z,30.17
2019-05-02T13:48:42.855Z,29.90
2019-05-02T13:51:11.929Z,29.90
2019-05-02T13:53:55.247Z,30.10
2019-05-02T13:56:45.763Z,30.67
2019-05-02T13:59:14.996Z,29.70
2019-05-02T14:01:44.609Z,30.20
2019-05-02T14:04:14.937Z,30.97
2019-05-02T14:06:43.954Z,27.50
2019-05-02T14:09:22.921Z,28.07
2019-05-02T14:12:01.980Z,31.10
2019-05-02T14:14:32.593Z,30.03
2019-05-02T14:17:03.009Z,28.07
2019-05-02T14:19:32.194Z,26.30
2019-05-02T14:22:02.804Z,28.27
2019-05-02T14:24:32.230Z,30.90
2019-05-02T14:27:02.599Z,27.40
2019-05-02T14:29:33.003Z,27.97
2019-05-02T14:32:02.673Z,28.27
2019-05-02T14:34:42.632Z,27.77
2019-05-02T14:37:11.874Z,29.57
2019-05-02T14:39:41.672Z,31.20
2019-05-02T14:42:15.358Z,29.93
2019-05-02T14:45:04.285Z,32.30
2019-05-02T14:47:17.874Z,30.30
2019-05-02T14:49:42.906Z,36.13
2019-05-02T14:52:12.655Z,33.53
2019-05-02T14:54:43.846Z,30.43
2019-05-02T14:57:20.181Z,30.20
2019-05-02T14:59:50.286Z,34.10
2019-05-02T15:02:39.355Z,33.40
2019-05-02T15:05:06.505Z,31.07
2019-05-02T15:07:38.246Z,33.57
2019-05-02T15:10:06.714Z,32.53
2019-05-02T15:12:35.483Z,31.23
2019-05-02T15:15:04.757Z,29.87
2019-05-02T15:17:37.728Z,26.67
2019-05-02T15:20:04.589Z,30.87
2019-05-02T15:22:37.523Z,31.67
2019-05-02T15:25:07.856Z,32.60
2019-05-02T15:27:41.950Z,35.87
2019-05-02T15:30:07.371Z,36.00
2019-05-02T15:32:46.557Z,27.77
2019-05-02T15:35:29.025Z,27.40
2019-05-02T15:38:02.680Z,24.83
2019-05-02T15:43:02.831Z,31.43
2019-05-02T15:45:27.946Z,28.93
2019-05-02T15:47:56.760Z,24.13
2019-05-02T15:50:26.028Z,29.10
2019-05-02T15:53:09.766Z,41.80
2019-05-02T15:55:39.497Z,19.40
2019-05-02T15:58:04.650Z,18.87
2019-05-02T16:00:37.118Z,20.57
2019-05-02T16:03:05.988Z,18.03
2019-05-02T16:05:36.489Z,18.00
2019-05-02T16:08:08.856Z,17.53
2019-05-02T16:10:38.560Z,20.03
2019-05-02T16:13:08.824Z,16.87
2019-05-02T16:15:38.535Z,18.63
2019-05-02T16:18:07.464Z,18.80
2019-05-02T16:21:08.059Z,16.30
2019-05-02T16:23:36.916Z,19.63
2019-05-02T16:26:14.468Z,15.93
2019-05-02T16:28:45.446Z,15.70
2019-05-02T16:31:17.020Z,15.57
2019-05-02T16:33:49.739Z,16.90
2019-05-02T16:36:16.447Z,17.13
2019-05-02T16:38:45.217Z,16.70
2019-05-02T16:41:14.006Z,16.57
2019-05-02T16:43:42.757Z,16.27
2019-05-02T16:46:14.111Z,16.90
2019-05-02T16:48:42.625Z,16.37
2019-05-02T16:51:27.589Z,15.67
2019-05-02T16:53:42.719Z,14.77
2019-05-02T16:56:11.642Z,15.70
2019-05-02T16:58:43.395Z,15.10
2019-05-02T17:01:12.291Z,14.97
2019-05-02T17:03:42.377Z,14.63
2019-05-02T17:06:12.362Z,15.07
2019-05-02T17:08:57.407Z,15.43
2019-05-02T17:11:32.348Z,14.77
2019-05-02T17:13:59.267Z,14.37
2019-05-02T17:16:28.083Z,14.13
2019-05-02T17:18:56.808Z,14.27
2019-05-02T17:21:26.838Z,14.03
2019-05-02T17:23:56.079Z,13.83
2019-05-02T17:26:24.847Z,13.27
2019-05-02T17:28:53.637Z,14.10
2019-05-02T17:31:23.108Z,13.70
2019-05-02T17:33:52.961Z,14.33
2019-05-02T17:36:28.411Z,14.00
2019-05-02T17:38:54.541Z,14.50
2019-05-02T17:41:23.509Z,13.30
2019-05-02T17:43:52.273Z,14.40
2019-05-02T17:46:25.718Z,13.90
2019-05-02T17:48:52.762Z,15.70
2019-05-02T17:51:37.796Z,14.90
2019-05-02T17:54:07.841Z,15.30
2019-05-02T17:56:36.879Z,16.07
2019-05-02T17:59:05.905Z,16.90
2019-05-02T18:01:38.825Z,17.33
2019-05-02T18:04:12.730Z,18.73
2019-05-02T18:06:38.263Z,25.47
2019-05-02T18:09:08.608Z,27.83
2019-05-02T18:11:37.896Z,28.57
2019-05-02T18:14:16.173Z,32.40
2019-05-02T18:16:39.268Z,30.63
2019-05-02T18:19:07.981Z,32.77
2019-05-02T18:21:36.807Z,30.90
2019-05-02T18:24:06.209Z,30.77
2019-05-02T18:26:35.704Z,32.53
2019-05-02T18:29:06.890Z,30.47
2019-05-02T18:31:39.623Z,31.27
2019-05-02T18:34:06.449Z,31.90
2019-05-02T18:36:35.556Z,31.93
2019-05-02T18:39:06.667Z,33.27
2019-05-02T18:41:37.441Z,35.20
2019-05-02T18:44:06.169Z,32.47
2019-05-02T18:46:36.786Z,33.23
2019-05-02T18:49:06.015Z,37.60
2019-05-02T18:51:35.041Z,36.30
2019-05-02T18:54:07.438Z,35.93
2019-05-02T18:56:42.850Z,34.53
2019-05-02T18:59:06.378Z,34.03
2019-05-02T19:01:35.370Z,38.63
2019-05-02T19:04:04.421Z,46.60
2019-05-02T19:06:36.084Z,40.57
2019-05-02T19:09:07.406Z,40.27
2019-05-02T19:11:36.484Z,40.23
2019-05-02T19:14:05.807Z,39.30
2019-05-02T19:16:34.776Z,43.43
2019-05-02T19:19:03.623Z,42.43
2019-05-02T19:21:36.791Z,39.17
2019-05-02T19:24:03.056Z,36.50
2019-05-02T19:26:32.639Z,37.77
2019-05-02T19:29:22.123Z,37.80
2019-05-02T19:31:52.883Z,38.63
2019-05-02T19:34:26.413Z,36.20
2019-05-02T19:36:53.015Z,34.27
2019-05-02T19:39:24.251Z,33.73
2019-05-02T19:41:52.785Z,33.00
2019-05-02T19:44:29.133Z,31.70
2019-05-02T19:46:52.269Z,25.43
2019-05-02T19:49:22.423Z,23.57
2019-05-02T19:51:56.517Z,22.07
2019-05-02T19:54:23.010Z,21.30
2019-05-02T19:56:52.399Z,18.83
2019-05-02T19:59:25.207Z,20.57
2019-05-02T20:01:52.374Z,15.03
2019-05-02T20:04:22.183Z,15.57
2019-05-02T20:06:52.093Z,11.90
2019-05-02T20:09:20.866Z,12.90
2019-05-02T20:11:51.591Z,13.00
2019-05-02T20:14:21.822Z,14.23
2019-05-02T20:16:54.099Z,13.23
2019-05-02T20:19:26.953Z,11.37
2019-05-02T20:22:22.441Z,18.93
2019-05-02T20:25:00.185Z,13.17
2019-05-02T20:27:28.454Z,13.77
2019-05-02T20:29:58.085Z,11.60
2019-05-02T20:32:26.903Z,12.43
2019-05-02T20:34:56.250Z,13.77
2019-05-02T20:37:25.178Z,13.00
2019-05-02T20:39:54.069Z,14.23
2019-05-02T20:42:22.896Z,13.57
2019-05-02T20:44:52.802Z,15.33
2019-05-02T20:47:25.756Z,18.73
2019-05-02T20:49:54.568Z,18.90
2019-05-02T20:52:23.418Z,21.70
2019-05-02T20:54:52.540Z,23.97
2019-05-02T20:57:21.392Z,22.37
2019-05-02T20:59:52.304Z,23.20
2019-05-02T21:02:21.195Z,24.33
2019-05-02T21:04:52.170Z,25.17
2019-05-02T21:07:33.031Z,24.37
2019-05-02T21:10:21.746Z,24.07
2019-05-02T21:12:52.564Z,24.63
2019-05-02T21:15:21.754Z,24.43
2019-05-02T21:17:50.494Z,25.23
2019-05-02T21:20:19.492Z,26.13
2019-05-02T21:22:48.803Z,25.93
2019-05-02T21:25:17.848Z,26.47
2019-05-02T21:27:46.763Z,27.00
2019-05-02T21:30:17.345Z,28.20
2019-05-02T21:33:59.176Z,27.50
2019-05-02T21:40:57.135Z,27.53
2019-05-02T21:44:45.583Z,27.87
2019-05-02T21:46:48.885Z,27.23
2019-05-02T21:50:22.630Z,28.53
2019-05-02T21:53:27.200Z,28.20
2019-05-02T21:56:46.944Z,29.17
2019-05-02T22:00:27.375Z,28.07
2019-05-02T22:07:37.963Z,28.57
2019-05-02T22:21:53.825Z,41.83
2019-05-02T22:39:12.565Z,30.37
2019-05-02T22:42:13.499Z,30.30
2019-05-02T22:45:23.833Z,31.33
2019-05-02T22:47:43.758Z,30.77
2019-05-02T22:50:14.105Z,30.57
2019-05-02T22:52:43.640Z,30.47
2019-05-02T22:55:14.115Z,31.87
2019-05-02T22:57:43.976Z,28.33
2019-05-02T23:00:16.533Z,28.90
2019-05-02T23:02:45.960Z,27.27
2019-05-02T23:05:15.445Z,27.63
2019-05-02T23:07:45.356Z,29.17
2019-05-02T23:10:15.657Z,29.70
2019-05-02T23:12:46.104Z,29.97
2019-05-02T23:15:17.002Z,26.93
2019-05-02T23:17:48.020Z,28.73
2019-05-02T23:20:17.592Z,27.57
2019-05-02T23:22:47.457Z,29.83
2019-05-02T23:25:42.554Z,28.33
2019-05-02T23:28:18.147Z,27.53
2019-05-02T23:30:47.017Z,27.47
2019-05-02T23:33:16.532Z,27.37
2019-05-02T23:35:48.120Z,28.63
2019-05-02T23:38:17.474Z,27.43
2019-05-02T23:44:03.924Z,26.43
2019-05-02T23:47:44.402Z,17.97
2019-05-02T23:49:58.295Z,14.83
2019-05-02T23:52:27.080Z,12.37
2019-05-02T23:54:55.901Z,10.03
2019-05-02T23:57:26.355Z,8.90
2019-05-02T23:59:58.302Z,8.33
